createdAt,value
2018-06-01T00:01:54.960Z,23.24
2018-06-01T00:04:21.590Z,23.06
2018-06-01T00:06:48.964Z,23.11
2018-06-01T00:09:16.554Z,23.16
2018-06-01T00:11:43.192Z,23.12
2018-06-01T00:14:10.205Z,22.97
2018-06-01T00:16:36.839Z,23.09
2018-06-01T00:19:03.543Z,23.19
2018-06-01T00:21:30.183Z,23.11
2018-06-01T00:23:56.852Z,22.83
2018-06-01T00:26:23.636Z,22.90
2018-06-01T00:28:50.316Z,23.03
2018-06-01T00:31:16.961Z,22.95
2018-06-01T00:33:43.580Z,22.77
2018-06-01T00:36:10.285Z,22.65
2018-06-01T00:38:36.960Z,22.69
2018-06-01T00:41:03.609Z,22.65
2018-06-01T00:43:30.288Z,22.59
2018-06-01T00:45:56.948Z,22.55
2018-06-01T00:48:23.589Z,22.56
2018-06-01T00:50:50.344Z,22.59
2018-06-01T00:53:17.022Z,22.55
2018-06-01T00:55:44.438Z,22.61
2018-06-01T00:58:11.113Z,22.55
2018-06-01T01:00:38.530Z,22.43
2018-06-01T01:03:05.988Z,22.40
2018-06-01T01:05:32.672Z,22.38
2018-06-01T01:08:00.122Z,22.17
2018-06-01T01:10:26.806Z,22.25
2018-06-01T01:12:53.443Z,22.27
2018-06-01T01:15:20.184Z,22.17
2018-06-01T01:17:46.827Z,22.13
2018-06-01T01:20:13.440Z,22.11
2018-06-01T01:22:40.869Z,22.03
2018-06-01T01:25:08.284Z,22.13
2018-06-01T01:27:35.107Z,22.07
2018-06-01T01:30:01.777Z,21.89
2018-06-01T01:32:28.412Z,21.84
2018-06-01T01:34:55.081Z,21.91
2018-06-01T01:37:31.843Z,21.88
2018-06-01T01:39:59.291Z,21.84
2018-06-01T01:42:25.952Z,21.99
2018-06-01T01:44:53.517Z,21.80
2018-06-01T01:47:21.024Z,21.98
2018-06-01T01:49:52.512Z,21.79
2018-06-01T01:52:19.353Z,21.70
2018-06-01T01:54:46.136Z,21.79
2018-06-01T01:57:13.704Z,21.65
2018-06-01T01:59:40.492Z,21.54
2018-06-01T02:02:07.295Z,21.29
2018-06-01T02:04:34.920Z,21.60
2018-06-01T02:07:02.551Z,21.60
2018-06-01T02:09:29.420Z,21.64
2018-06-01T02:11:56.191Z,21.64
2018-06-01T02:14:22.960Z,21.56
2018-06-01T02:16:50.577Z,21.54
2018-06-01T02:19:18.106Z,21.43
2018-06-01T02:21:44.934Z,21.35
2018-06-01T02:24:11.692Z,21.30
2018-06-01T02:26:38.460Z,21.37
2018-06-01T02:29:05.345Z,21.14
2018-06-01T02:31:32.130Z,21.13
2018-06-01T02:33:58.964Z,21.06
2018-06-01T02:36:25.752Z,21.07
2018-06-01T02:38:52.564Z,21.05
2018-06-01T02:41:19.395Z,21.13
2018-06-01T02:43:46.233Z,20.77
2018-06-01T02:46:13.040Z,21.05
2018-06-01T02:48:40.551Z,21.07
2018-06-01T02:51:07.307Z,21.00
2018-06-01T02:53:34.284Z,21.05
2018-06-01T02:56:01.063Z,20.94
2018-06-01T02:58:27.875Z,21.06
2018-06-01T03:00:55.402Z,21.06
2018-06-01T03:03:22.924Z,21.00
2018-06-01T03:05:49.801Z,20.99
2018-06-01T03:08:17.482Z,21.02
2018-06-01T03:10:45.008Z,21.00
2018-06-01T03:13:11.795Z,21.03
2018-06-01T03:15:38.634Z,20.73
2018-06-01T03:18:05.554Z,20.94
2018-06-01T03:20:32.322Z,21.09
2018-06-01T03:22:59.092Z,21.11
2018-06-01T03:25:25.908Z,21.00
2018-06-01T03:27:52.676Z,21.23
2018-06-01T03:30:20.243Z,21.20
2018-06-01T03:32:47.051Z,21.06
2018-06-01T03:35:14.550Z,21.22
2018-06-01T03:37:41.324Z,20.71
2018-06-01T03:40:08.134Z,20.70
2018-06-01T03:42:35.699Z,20.91
2018-06-01T03:45:02.574Z,21.10
2018-06-01T03:47:29.352Z,21.09
2018-06-01T03:49:56.424Z,20.66
2018-06-01T03:52:23.195Z,20.94
2018-06-01T03:54:50.115Z,21.03
2018-06-01T03:57:16.929Z,21.23
2018-06-01T03:59:43.712Z,21.19
2018-06-01T04:02:10.533Z,21.20
2018-06-01T04:04:37.548Z,21.11
2018-06-01T04:07:04.431Z,21.17
2018-06-01T04:09:31.952Z,21.15
2018-06-01T04:11:59.604Z,21.20
2018-06-01T04:14:26.423Z,21.01
2018-06-01T04:16:53.291Z,21.07
2018-06-01T04:19:20.159Z,21.08
2018-06-01T04:21:46.968Z,21.35
2018-06-01T04:24:13.945Z,21.62
2018-06-01T04:26:41.476Z,21.67
2018-06-01T04:29:08.267Z,21.61
2018-06-01T04:31:35.138Z,21.64
2018-06-01T04:34:01.922Z,21.80
2018-06-01T04:36:29.443Z,21.78
2018-06-01T04:38:56.247Z,22.13
2018-06-01T04:41:23.344Z,22.19
2018-06-01T04:43:50.179Z,22.11
2018-06-01T04:46:16.956Z,22.15
2018-06-01T04:48:43.763Z,22.21
2018-06-01T04:51:10.544Z,22.03
2018-06-01T04:53:37.366Z,22.41
2018-06-01T04:56:04.286Z,22.29
2018-06-01T04:58:31.104Z,22.18
2018-06-01T05:00:57.904Z,22.41
2018-06-01T05:03:24.663Z,22.32
2018-06-01T05:05:51.846Z,22.71
2018-06-01T05:08:18.712Z,22.86
2018-06-01T05:10:45.508Z,23.37
2018-06-01T05:13:13.028Z,23.52
2018-06-01T05:15:39.791Z,23.04
2018-06-01T05:18:06.612Z,22.82
2018-06-01T05:20:34.222Z,23.27
2018-06-01T05:23:01.870Z,22.76
2018-06-01T05:25:29.403Z,23.34
2018-06-01T05:27:56.170Z,23.17
2018-06-01T05:30:22.999Z,23.22
2018-06-01T05:32:49.868Z,23.23
2018-06-01T05:37:51.910Z,23.49
2018-06-01T05:40:18.676Z,23.38
2018-06-01T05:42:45.508Z,23.07
2018-06-01T05:45:18.448Z,23.06
2018-06-01T05:47:45.254Z,23.30
2018-06-01T05:50:12.089Z,23.44
2018-06-01T05:52:38.853Z,23.40
2018-06-01T05:55:06.383Z,23.47
2018-06-01T05:57:33.264Z,23.78
2018-06-01T06:00:00.908Z,23.47
2018-06-01T06:02:27.705Z,23.49
2018-06-01T06:04:54.511Z,23.81
2018-06-01T06:07:22.024Z,23.78
2018-06-01T06:09:49.012Z,24.11
2018-06-01T06:12:16.516Z,23.91
2018-06-01T06:14:43.275Z,24.01
2018-06-01T06:17:10.087Z,24.55
2018-06-01T06:19:36.856Z,24.81
2018-06-01T06:22:04.460Z,24.78
2018-06-01T06:24:32.260Z,24.56
2018-06-01T06:26:59.040Z,23.90
2018-06-01T06:29:25.816Z,24.46
2018-06-01T06:31:53.404Z,24.83
2018-06-01T06:34:20.288Z,25.25
2018-06-01T06:36:47.068Z,25.44
2018-06-01T06:39:14.624Z,24.70
2018-06-01T06:41:42.131Z,25.17
2018-06-01T06:44:08.948Z,24.21
2018-06-01T06:46:35.842Z,24.78
2018-06-01T06:49:02.661Z,25.55
2018-06-01T06:51:29.469Z,25.58
2018-06-01T06:53:57.038Z,26.11
2018-06-01T06:56:24.054Z,26.64
2018-06-01T06:58:50.872Z,26.57
2018-06-01T07:01:17.640Z,25.44
2018-06-01T07:03:44.456Z,25.92
2018-06-01T07:06:11.224Z,25.79
2018-06-01T07:08:38.064Z,25.26
2018-06-01T07:11:04.891Z,26.40
2018-06-01T07:13:31.900Z,26.76
2018-06-01T07:15:58.675Z,27.11
2018-06-01T07:18:25.458Z,26.86
2018-06-01T07:20:53.148Z,26.50
2018-06-01T07:23:19.976Z,26.81
2018-06-01T07:25:47.484Z,26.62
2018-06-01T07:28:14.302Z,26.97
2018-06-01T07:30:41.124Z,25.06
2018-06-01T07:33:07.912Z,25.47
2018-06-01T07:35:34.848Z,26.09
2018-06-01T07:38:01.619Z,25.85
2018-06-01T07:40:28.488Z,26.40
2018-06-01T07:42:55.995Z,26.32
2018-06-01T07:45:29.009Z,25.72
2018-06-01T07:47:55.847Z,24.84
2018-06-01T07:50:22.992Z,25.21
2018-06-01T07:52:49.770Z,25.39
2018-06-01T07:55:16.540Z,25.41
2018-06-01T07:57:43.419Z,25.43
2018-06-01T08:00:10.979Z,26.10
2018-06-01T08:02:37.987Z,27.23
2018-06-01T08:05:04.825Z,26.42
2018-06-01T08:07:32.377Z,27.74
2018-06-01T08:10:00.092Z,27.02
2018-06-01T08:12:27.652Z,27.71
2018-06-01T08:14:54.424Z,28.75
2018-06-01T08:17:25.296Z,27.66
2018-06-01T08:19:52.083Z,27.97
2018-06-01T08:22:19.304Z,27.88
2018-06-01T08:24:46.124Z,28.56
2018-06-01T08:27:13.623Z,28.50
2018-06-01T08:29:40.747Z,29.00
2018-06-01T08:32:07.751Z,29.27
2018-06-01T08:34:34.827Z,28.75
2018-06-01T08:37:01.649Z,29.59
2018-06-01T08:39:28.447Z,28.58
2018-06-01T08:41:55.377Z,28.92
2018-06-01T08:44:22.188Z,29.90
2018-06-01T08:46:48.957Z,29.94
2018-06-01T08:49:15.837Z,29.12
2018-06-01T08:51:42.615Z,29.04
2018-06-01T08:54:09.563Z,29.06
2018-06-01T08:56:36.333Z,29.34
2018-06-01T08:59:03.927Z,29.29
2018-06-01T09:01:30.885Z,28.29
2018-06-01T09:03:57.653Z,29.69
2018-06-01T09:06:24.446Z,28.16
2018-06-01T09:08:51.283Z,29.65
2018-06-01T09:11:18.093Z,30.17
2018-06-01T09:13:44.911Z,29.59
2018-06-01T09:16:11.727Z,29.71
2018-06-01T09:18:38.560Z,29.75
2018-06-01T09:21:05.435Z,31.04
2018-06-01T09:23:32.347Z,30.62
2018-06-01T09:25:59.180Z,29.95
2018-06-01T09:28:26.733Z,28.90
2018-06-01T09:30:53.518Z,29.37
2018-06-01T09:33:20.336Z,30.68
2018-06-01T09:35:47.149Z,30.87
2018-06-01T09:38:13.964Z,30.35
2018-06-01T09:40:40.783Z,29.90
2018-06-01T09:43:07.864Z,29.99
2018-06-01T09:45:35.619Z,29.79
2018-06-01T09:48:02.768Z,30.17
2018-06-01T09:50:30.324Z,30.50
2018-06-01T09:52:57.096Z,30.33
2018-06-01T09:55:23.941Z,29.81
2018-06-01T09:57:50.698Z,30.18
2018-06-01T10:00:18.303Z,30.60
2018-06-01T10:02:45.924Z,30.89
2018-06-01T10:05:12.730Z,31.19
2018-06-01T10:07:39.503Z,30.48
2018-06-01T10:10:13.056Z,30.44
2018-06-01T10:12:39.874Z,30.04
2018-06-01T10:15:06.716Z,30.31
2018-06-01T10:17:33.537Z,30.04
2018-06-01T10:20:01.110Z,31.05
2018-06-01T10:22:28.851Z,30.90
2018-06-01T10:24:55.619Z,31.43
2018-06-01T10:27:22.480Z,30.66
2018-06-01T10:29:49.290Z,30.64
2018-06-01T10:32:16.795Z,30.97
2018-06-01T10:34:43.748Z,31.49
2018-06-01T10:37:10.516Z,30.92
2018-06-01T10:39:37.353Z,30.90
2018-06-01T10:42:04.985Z,30.99
2018-06-01T10:44:31.753Z,30.97
2018-06-01T10:46:58.575Z,31.20
2018-06-01T10:49:25.338Z,31.46
2018-06-01T10:51:52.896Z,31.61
2018-06-01T10:54:19.721Z,30.96
2018-06-01T10:56:46.499Z,30.84
2018-06-01T10:59:13.372Z,30.71
2018-06-01T11:01:40.923Z,30.13
2018-06-01T11:04:07.814Z,30.12
2018-06-01T11:06:34.652Z,29.80
2018-06-01T11:09:01.416Z,30.19
2018-06-01T11:11:28.337Z,30.99
2018-06-01T11:13:55.121Z,31.24
2018-06-01T11:16:21.948Z,31.26
2018-06-01T11:18:48.758Z,31.30
2018-06-01T11:21:15.587Z,31.24
2018-06-01T11:23:42.404Z,31.33
2018-06-01T11:26:09.164Z,32.13
2018-06-01T11:28:36.065Z,32.43
2018-06-01T11:31:02.823Z,31.77
2018-06-01T11:33:29.583Z,32.08
2018-06-01T11:35:56.385Z,31.90
2018-06-01T11:38:23.195Z,31.97
2018-06-01T11:40:50.044Z,31.12
2018-06-01T11:43:16.818Z,30.46
2018-06-01T11:45:49.489Z,30.44
2018-06-01T11:48:16.268Z,31.35
2018-06-01T11:50:43.191Z,31.53
2018-06-01T11:53:10.750Z,32.31
2018-06-01T11:55:37.517Z,32.50
2018-06-01T11:58:04.337Z,31.56
2018-06-01T12:00:31.208Z,30.69
2018-06-01T12:02:58.031Z,30.92
2018-06-01T12:05:25.580Z,31.25
2018-06-01T12:07:52.400Z,31.10
2018-06-01T12:10:19.177Z,31.06
2018-06-01T12:12:45.959Z,31.05
2018-06-01T12:15:13.583Z,30.99
2018-06-01T12:17:40.485Z,31.24
2018-06-01T12:20:07.250Z,30.98
2018-06-01T12:22:34.758Z,31.62
2018-06-01T12:25:02.462Z,31.90
2018-06-01T12:27:29.231Z,31.49
2018-06-01T12:29:56.301Z,31.02
2018-06-01T12:32:23.162Z,30.96
2018-06-01T12:34:49.936Z,31.15
2018-06-01T12:37:16.746Z,31.54
2018-06-01T12:39:44.266Z,30.73
2018-06-01T12:42:11.898Z,31.50
2018-06-01T12:44:38.722Z,31.07
2018-06-01T12:47:06.220Z,30.44
2018-06-01T12:49:33.028Z,30.15
2018-06-01T12:52:00.536Z,29.81
2018-06-01T12:54:28.160Z,29.32
2018-06-01T12:56:55.680Z,28.95
2018-06-01T12:59:22.491Z,28.79
2018-06-01T13:01:49.413Z,28.26
2018-06-01T13:04:16.246Z,28.54
2018-06-01T13:06:43.055Z,28.47
2018-06-01T13:09:09.869Z,28.41
2018-06-01T13:11:36.698Z,28.13
2018-06-01T13:14:03.549Z,28.53
2018-06-01T13:16:31.090Z,28.49
2018-06-01T13:18:57.956Z,28.59
2018-06-01T13:21:24.774Z,28.53
2018-06-01T13:23:51.752Z,28.70
2018-06-01T13:26:19.273Z,28.90
2018-06-01T13:28:46.123Z,28.68
2018-06-01T13:31:13.007Z,28.76
2018-06-01T13:33:39.844Z,28.80
2018-06-01T13:36:06.632Z,28.16
2018-06-01T13:38:34.204Z,28.32
2018-06-01T13:41:01.741Z,28.71
2018-06-01T13:43:28.577Z,28.88
2018-06-01T13:45:55.503Z,28.99
2018-06-01T13:48:22.324Z,28.93
2018-06-01T13:50:49.340Z,28.86
2018-06-01T13:53:16.171Z,28.72
2018-06-01T13:55:43.070Z,28.55
2018-06-01T13:58:10.578Z,28.20
2018-06-01T14:00:37.392Z,28.10
2018-06-01T14:03:04.313Z,28.50
2018-06-01T14:05:31.834Z,28.47
2018-06-01T14:07:58.744Z,28.13
2018-06-01T14:10:25.517Z,28.26
2018-06-01T14:12:52.297Z,28.15
2018-06-01T14:15:19.147Z,27.68
2018-06-01T14:17:45.950Z,27.85
2018-06-01T14:20:13.028Z,27.97
2018-06-01T14:22:39.811Z,27.89
2018-06-01T14:25:06.839Z,27.51
2018-06-01T14:27:33.658Z,27.77
2018-06-01T14:30:00.444Z,28.03
2018-06-01T14:32:27.316Z,27.96
2018-06-01T14:34:54.087Z,27.97
2018-06-01T14:37:20.913Z,27.79
2018-06-01T14:39:48.468Z,27.59
2018-06-01T14:42:16.170Z,27.81
2018-06-01T14:44:43.000Z,27.55
2018-06-01T14:47:09.794Z,27.65
2018-06-01T14:49:36.633Z,27.55
2018-06-01T14:52:03.461Z,27.59
2018-06-01T14:54:30.275Z,27.71
2018-06-01T14:56:57.116Z,27.53
2018-06-01T14:59:23.996Z,27.37
2018-06-01T15:01:50.795Z,27.53
2018-06-01T15:04:17.666Z,27.33
2018-06-01T15:06:44.461Z,27.23
2018-06-01T15:09:11.291Z,27.15
2018-06-01T15:11:38.132Z,27.24
2018-06-01T15:14:04.956Z,27.18
2018-06-01T15:16:31.936Z,27.33
2018-06-01T15:18:58.708Z,27.21
2018-06-01T15:21:25.552Z,27.17
2018-06-01T15:23:53.188Z,27.24
2018-06-01T15:26:19.976Z,27.23
2018-06-01T15:28:46.760Z,27.24
2018-06-01T15:31:13.588Z,27.02
2018-06-01T15:33:41.156Z,27.34
2018-06-01T15:36:07.951Z,27.39
2018-06-01T15:38:34.794Z,27.07
2018-06-01T15:41:01.631Z,26.94
2018-06-01T15:43:28.389Z,26.60
2018-06-01T15:45:55.284Z,27.02
2018-06-01T15:48:22.376Z,27.22
2018-06-01T15:50:49.204Z,27.22
2018-06-01T15:53:16.724Z,27.13
2018-06-01T15:55:43.534Z,26.95
2018-06-01T15:58:10.520Z,26.99
2018-06-01T16:00:37.304Z,26.91
2018-06-01T16:03:04.328Z,26.86
2018-06-01T16:05:31.167Z,26.57
2018-06-01T16:07:57.960Z,26.66
2018-06-01T16:10:24.846Z,26.60
2018-06-01T16:12:51.646Z,26.39
2018-06-01T16:15:18.440Z,26.34
2018-06-01T16:17:45.259Z,26.29
2018-06-01T16:20:12.036Z,26.34
2018-06-01T16:22:38.877Z,26.30
2018-06-01T16:25:05.964Z,26.31
2018-06-01T16:27:32.739Z,26.55
2018-06-01T16:29:59.512Z,26.35
2018-06-01T16:32:27.515Z,26.41
2018-06-01T16:34:54.356Z,26.47
2018-06-01T16:37:21.314Z,26.57
2018-06-01T16:39:48.113Z,26.64
2018-06-01T16:42:14.907Z,26.60
2018-06-01T16:44:41.730Z,26.43
2018-06-01T16:47:08.573Z,26.55
2018-06-01T16:49:35.438Z,26.42
2018-06-01T16:52:02.235Z,26.43
2018-06-01T16:54:29.015Z,26.32
2018-06-01T16:56:55.840Z,26.20
2018-06-01T16:59:22.677Z,26.09
2018-06-01T17:01:50.410Z,26.07
2018-06-01T17:04:17.368Z,26.04
2018-06-01T17:06:44.252Z,25.99
2018-06-01T17:09:11.145Z,25.88
2018-06-01T17:11:38.005Z,25.55
2018-06-01T17:14:04.788Z,25.74
2018-06-01T17:16:31.729Z,25.55
2018-06-01T17:18:58.521Z,25.51
2018-06-01T17:21:25.324Z,25.54
2018-06-01T17:23:52.228Z,25.35
2018-06-01T17:26:19.018Z,25.49
2018-06-01T17:28:45.803Z,25.46
2018-06-01T17:31:12.640Z,25.39
2018-06-01T17:33:39.426Z,25.25
2018-06-01T17:36:06.272Z,25.28
2018-06-01T17:38:33.276Z,25.15
2018-06-01T17:41:00.068Z,25.47
2018-06-01T17:43:26.852Z,25.35
2018-06-01T17:45:53.900Z,25.42
2018-06-01T17:48:20.836Z,25.27
2018-06-01T17:50:47.616Z,24.92
2018-06-01T17:53:14.448Z,24.77
2018-06-01T17:55:41.348Z,24.93
2018-06-01T17:58:08.139Z,24.95
2018-06-01T18:00:35.102Z,24.81
2018-06-01T18:03:02.636Z,24.54
2018-06-01T18:05:29.420Z,24.61
2018-06-01T18:07:57.248Z,24.71
2018-06-01T18:10:24.027Z,24.56
2018-06-01T18:12:50.914Z,24.35
2018-06-01T18:15:17.713Z,24.30
2018-06-01T18:17:45.291Z,24.35
2018-06-01T18:20:12.476Z,24.43
2018-06-01T18:22:39.303Z,24.35
2018-06-01T18:25:06.164Z,24.56
2018-06-01T18:27:32.974Z,24.16
2018-06-01T18:29:59.768Z,24.25
2018-06-01T18:32:26.585Z,24.05
2018-06-01T18:34:53.752Z,24.02
2018-06-01T18:37:21.874Z,23.90
2018-06-01T18:39:49.499Z,23.74
2018-06-01T18:42:16.336Z,23.64
2018-06-01T18:44:43.131Z,23.62
2018-06-01T18:47:09.899Z,23.37
2018-06-01T18:49:37.595Z,23.42
2018-06-01T18:52:04.428Z,23.28
2018-06-01T18:54:31.394Z,23.26
2018-06-01T18:56:58.200Z,23.22
2018-06-01T18:59:25.332Z,23.07
2018-06-01T19:01:52.531Z,22.96
2018-06-01T19:04:19.324Z,22.99
2018-06-01T19:06:46.128Z,22.84
2018-06-01T19:09:13.038Z,22.90
2018-06-01T19:11:39.755Z,22.82
2018-06-01T19:14:07.108Z,22.81
2018-06-01T19:16:33.892Z,22.82
2018-06-01T19:19:00.688Z,22.86
2018-06-01T19:21:28.384Z,22.81
2018-06-01T19:23:55.164Z,22.73
2018-06-01T19:26:22.037Z,22.69
2018-06-01T19:28:48.805Z,22.54
2018-06-01T19:31:15.833Z,22.61
2018-06-01T19:33:42.604Z,22.70
2018-06-01T19:36:09.680Z,22.67
2018-06-01T19:38:36.744Z,22.62
2018-06-01T19:41:03.548Z,22.52
2018-06-01T19:43:30.619Z,22.48
2018-06-01T19:45:57.456Z,22.50
2018-06-01T19:48:24.224Z,22.63
2018-06-01T19:50:51.100Z,22.47
2018-06-01T19:53:17.944Z,22.50
2018-06-01T19:55:44.725Z,22.45
2018-06-01T19:58:11.544Z,22.37
2018-06-01T20:00:38.369Z,22.18
2018-06-01T20:03:05.187Z,22.40
2018-06-01T20:05:32.758Z,22.45
2018-06-01T20:08:00.282Z,22.29
2018-06-01T20:10:27.115Z,22.24
2018-06-01T20:12:53.890Z,22.33
2018-06-01T20:15:20.785Z,22.25
2018-06-01T20:17:47.612Z,22.24
2018-06-01T20:20:14.718Z,22.17
2018-06-01T20:22:41.581Z,22.00
2018-06-01T20:25:08.342Z,22.16
2018-06-01T20:27:35.167Z,22.14
2018-06-01T20:30:01.983Z,22.10
2018-06-01T20:32:28.747Z,22.04
2018-06-01T20:34:55.516Z,21.83
2018-06-01T20:37:22.390Z,21.97
2018-06-01T20:39:49.952Z,22.05
2018-06-01T20:42:16.775Z,22.10
2018-06-01T20:44:43.542Z,21.95
2018-06-01T20:47:10.368Z,22.12
2018-06-01T20:49:37.160Z,22.10
2018-06-01T20:52:04.039Z,21.84
2018-06-01T20:54:30.858Z,21.84
2018-06-01T20:56:58.387Z,21.88
2018-06-01T20:59:25.203Z,21.91
2018-06-01T21:01:51.995Z,21.88
2018-06-01T21:04:18.819Z,21.78
2018-06-01T21:06:45.628Z,21.65
2018-06-01T21:09:12.406Z,21.70
2018-06-01T21:11:39.525Z,21.76
2018-06-01T21:14:06.298Z,21.66
2018-06-01T21:16:33.137Z,21.56
2018-06-01T21:18:59.953Z,21.36
2018-06-01T21:21:26.799Z,21.46
2018-06-01T21:23:54.264Z,21.66
2018-06-01T21:26:21.087Z,21.48
2018-06-01T21:28:47.952Z,21.63
2018-06-01T21:31:14.740Z,21.55
2018-06-01T21:33:41.559Z,21.25
2018-06-01T21:36:08.428Z,21.02
2018-06-01T21:38:35.247Z,21.23
2018-06-01T21:41:02.079Z,21.47
2018-06-01T21:43:28.907Z,21.50
2018-06-01T21:45:55.684Z,21.30
2018-06-01T21:48:22.467Z,21.49
2018-06-01T21:50:50.121Z,21.37
2018-06-01T21:53:16.970Z,21.48
2018-06-01T21:55:44.520Z,21.35
2018-06-01T21:58:12.053Z,21.40
2018-06-01T22:00:38.896Z,21.51
2018-06-01T22:03:05.929Z,21.49
2018-06-01T22:05:33.492Z,21.34
2018-06-01T22:08:00.280Z,21.43
2018-06-01T22:10:27.899Z,21.36
2018-06-01T22:12:54.675Z,20.86
2018-06-01T22:15:21.496Z,21.10
2018-06-01T22:17:48.494Z,21.15
2018-06-01T22:20:15.285Z,21.10
2018-06-01T22:22:42.077Z,21.20
2018-06-01T22:25:08.955Z,21.28
2018-06-01T22:27:35.712Z,21.32
2018-06-01T22:30:03.393Z,21.32
2018-06-01T22:32:30.226Z,21.28
2018-06-01T22:34:57.057Z,21.23
2018-06-01T22:37:24.159Z,21.25
2018-06-01T22:39:51.716Z,21.05
2018-06-01T22:42:18.557Z,20.99
2018-06-01T22:44:46.112Z,21.21
2018-06-01T22:47:13.632Z,21.06
2018-06-01T22:49:40.407Z,21.11
2018-06-01T22:52:07.320Z,21.12
2018-06-01T22:54:34.920Z,21.17
2018-06-01T22:57:02.476Z,20.72
2018-06-01T22:59:29.252Z,20.80
2018-06-01T23:01:56.040Z,20.59
2018-06-01T23:04:22.859Z,20.46
2018-06-01T23:06:49.756Z,20.61
2018-06-01T23:09:17.318Z,20.62
2018-06-01T23:11:44.814Z,20.73
2018-06-01T23:14:11.651Z,20.84
2018-06-01T23:16:38.489Z,20.94
2018-06-01T23:19:05.315Z,20.62
2018-06-01T23:21:32.828Z,20.60
2018-06-01T23:23:59.651Z,20.53
2018-06-01T23:26:26.463Z,20.56
2018-06-01T23:28:53.272Z,20.53
2018-06-01T23:31:20.098Z,20.36
2018-06-01T23:33:46.918Z,20.49
2018-06-01T23:36:13.932Z,20.46
2018-06-01T23:38:41.505Z,20.52
2018-06-01T23:41:09.083Z,20.49
2018-06-01T23:43:35.923Z,20.38
2018-06-01T23:46:02.692Z,20.41
2018-06-01T23:48:29.508Z,20.41
2018-06-01T23:50:56.302Z,20.49
2018-06-01T23:53:23.124Z,20.37
2018-06-01T23:55:50.715Z,20.47
2018-06-01T23:58:17.558Z,20.43
